Terminal Aerodrome Forecast
Issued by NWS

Home | Current Version | Previous Version | Text Only | Print | Product List | Glossary On
Versions: 1 2 3 4 5 6 7 8 9 10 11 12 13 14 15 16 17
000
FTUS42 KMLB 171720
TAFFPR
TAF
KFPR 171720Z 1718/1818 11009KT P6SM SCT035 SCT250
     FM180000 13005KT P6SM FEW035 BKN250
     FM180900 VRB02KT 5SM BR FEW003
      TEMPO 1809/1812 3SM BR SCT003
     FM181400 12007KT P6SM SCT250=

USA.gov is the U.S. government's official web portal to all federal, state and local government web resources and services.